Time;durP1;ratioP1;P1;durP2;ratioP2;P2;SDS_P1;SDS_P2;PMS_P1;PMS_P2;Temp;Humidity;BMP_temperature;BMP_pressure;BME280_temperature;BME280_humidity;BME280_pressure;Samples;Min_cycle;Max_cycle;Signal;HPM_P1;HPM_P2
2024/01/30 00:02:12;;;;;;;26.23;15.68;;;;;;;4.82;85.48;101615.00;10445432;28;20053;-77
2024/01/30 00:07:17;;;;;;;26.30;16.58;;;;;;;4.79;85.61;101620.44;10443372;28;20052;-78
2024/01/30 00:12:20;;;;;;;26.98;16.42;;;;;;;4.78;85.81;101619.59;10461245;28;20075;-78
2024/01/30 00:17:25;;;;;;;26.90;15.95;;;;;;;4.80;85.75;101620.41;10462592;28;20052;-77
2024/01/30 00:22:30;;;;;;;22.10;15.40;;;;;;;4.80;85.77;101619.50;10458321;28;20257;-77
2024/01/30 00:27:33;;;;;;;31.33;16.90;;;;;;;4.73;86.38;101618.88;10465840;28;20056;-78
2024/01/30 00:32:36;;;;;;;27.90;16.38;;;;;;;4.71;86.20;101623.38;10453390;28;20284;-78
2024/01/30 00:37:40;;;;;;;28.52;16.23;;;;;;;4.72;86.48;101619.81;10436547;28;20044;-77
2024/01/30 00:42:43;;;;;;;23.15;16.67;;;;;;;4.73;86.13;101621.53;10447870;28;20044;-77
2024/01/30 00:47:46;;;;;;;23.10;15.95;;;;;;;4.68;86.26;101618.19;10422784;28;20055;-78
2024/01/30 00:52:51;;;;;;;28.23;16.20;;;;;;;4.62;86.65;101616.63;10439944;28;20048;-78
2024/01/30 00:57:54;;;;;;;26.52;17.33;;;;;;;4.53;87.49;101624.94;10445477;28;20151;-78
2024/01/30 01:02:57;;;;;;;25.85;17.10;;;;;;;4.54;88.40;101624.00;10423701;28;20036;-79
2024/01/30 01:08:02;;;;;;;27.73;18.23;;;;;;;4.56;88.66;101616.84;10455581;28;20534;-77
2024/01/30 01:13:05;;;;;;;30.60;18.48;;;;;;;4.70;88.50;101624.31;10431163;28;20052;-76
2024/01/30 01:18:08;;;;;;;27.55;17.63;;;;;;;4.73;88.23;101618.03;10432957;28;20059;-77
2024/01/30 01:23:12;;;;;;;28.70;17.05;;;;;;;4.68;88.52;101612.00;10427920;28;20048;-76
2024/01/30 01:28:15;;;;;;;32.67;18.20;;;;;;;4.73;88.81;101607.38;10441181;28;20049;-78
2024/01/30 01:33:18;;;;;;;27.73;18.23;;;;;;;4.77;88.27;101609.88;10447133;28;20045;-78
2024/01/30 01:38:23;;;;;;;30.15;17.40;;;;;;;4.74;88.54;101598.44;10454847;28;20073;-77
2024/01/30 01:43:26;;;;;;;27.90;17.67;;;;;;;4.63;89.21;101596.19;10430594;28;20076;-78
2024/01/30 01:48:29;;;;;;;29.65;17.70;;;;;;;4.54;89.90;101592.06;10440833;28;20052;-81
2024/01/30 01:53:34;;;;;;;28.92;17.02;;;;;;;4.60;89.45;101585.66;10442413;28;20075;-81
2024/01/30 01:58:38;;;;;;;27.27;17.52;;;;;;;4.59;89.67;101579.47;10444195;28;20500;-79
2024/01/30 02:03:42;;;;;;;29.02;16.63;;;;;;;4.57;89.95;101578.66;10432070;28;20041;-78
2024/01/30 02:08:47;;;;;;;29.70;17.95;;;;;;;4.61;89.97;101588.28;10432410;28;20056;-77
2024/01/30 02:13:50;;;;;;;31.85;19.70;;;;;;;4.57;90.25;101575.13;10434196;28;20517;-81
2024/01/30 02:18:53;;;;;;;28.52;18.13;;;;;;;4.51;90.44;101581.53;10444102;28;21096;-80
2024/01/30 02:23:59;;;;;;;31.27;18.90;;;;;;;4.43;90.57;101574.78;10447526;28;20153;-79
2024/01/30 02:29:02;;;;;;;29.83;18.00;;;;;;;4.37;90.79;101578.53;10427706;28;20205;-80
2024/01/30 02:34:05;;;;;;;27.42;18.45;;;;;;;4.27;91.66;101570.00;10447340;28;20052;-77
2024/01/30 02:39:10;;;;;;;25.98;17.85;;;;;;;4.27;92.21;101559.34;10449192;28;20056;-79
2024/01/30 02:44:13;;;;;;;36.95;19.10;;;;;;;4.30;91.90;101558.38;10424408;28;20689;-79
2024/01/30 02:49:16;;;;;;;28.30;17.08;;;;;;;4.28;92.21;101553.13;10462055;28;20052;-79
2024/01/30 02:54:20;;;;;;;28.83;17.58;;;;;;;4.21;92.93;101538.31;10464262;28;20052;-77
2024/01/30 02:59:23;;;;;;;31.95;17.33;;;;;;;4.32;92.83;101537.91;10468262;28;20116;-79
2024/01/30 03:04:26;;;;;;;33.40;18.77;;;;;;;4.29;93.67;101532.72;10480573;28;20068;-79
2024/01/30 03:09:31;;;;;;;29.75;19.15;;;;;;;4.33;93.48;101526.34;10461722;28;20117;-80
2024/01/30 03:14:34;;;;;;;31.63;18.77;;;;;;;4.26;93.61;101519.53;10436954;28;20189;-79
2024/01/30 03:19:37;;;;;;;31.40;19.70;;;;;;;4.25;93.59;101518.66;10450595;28;20048;-79
2024/01/30 03:24:41;;;;;;;29.42;18.52;;;;;;;4.29;93.77;101517.59;10438687;28;20417;-80
2024/01/30 03:29:44;;;;;;;31.90;19.23;;;;;;;4.27;93.35;101518.59;10425293;28;20071;-79
2024/01/30 03:34:47;;;;;;;39.28;18.35;;;;;;;4.20;93.83;101509.97;10444701;28;21210;-78
2024/01/30 03:39:52;;;;;;;31.50;19.10;;;;;;;4.18;93.63;101507.38;10444862;28;21206;-78
2024/01/30 03:44:55;;;;;;;28.98;18.00;;;;;;;4.12;93.85;101506.72;10445572;28;20056;-79
2024/01/30 03:49:58;;;;;;;30.50;18.30;;;;;;;4.05;93.94;101502.53;10460124;28;20051;-77
2024/01/30 03:55:02;;;;;;;32.53;19.52;;;;;;;4.02;94.22;101495.53;10439625;28;20048;-79
2024/01/30 04:00:07;;;;;;;29.75;18.58;;;;;;;3.93;95.00;101496.75;10432263;28;20060;-82
2024/01/30 04:05:16;;;;;;;30.25;19.20;;;;;;;3.98;95.08;101493.94;10438237;28;20052;-81
2024/01/30 04:10:21;;;;;;;30.02;18.38;;;;;;;3.92;95.17;101489.72;10445020;28;20524;-81
2024/01/30 04:15:24;;;;;;;33.58;19.10;;;;;;;3.89;95.86;101486.25;10442667;28;20049;-78
2024/01/30 04:20:27;;;;;;;34.05;19.08;;;;;;;3.89;96.43;101481.81;10443212;28;20048;-76
2024/01/30 04:25:31;;;;;;;29.85;19.25;;;;;;;3.85;97.02;101484.66;10453319;28;20057;-77
2024/01/30 04:30:34;;;;;;;35.95;19.92;;;;;;;3.90;96.30;101483.56;10456979;28;20059;-81
2024/01/30 04:35:37;;;;;;;38.42;19.73;;;;;;;3.90;96.25;101483.56;10435664;28;20041;-80
2024/01/30 04:40:42;;;;;;;36.53;19.58;;;;;;;3.86;96.36;101487.25;10440124;28;20079;-80
2024/01/30 04:45:45;;;;;;;33.17;19.88;;;;;;;3.87;96.47;101482.81;10441461;28;20049;-79
2024/01/30 04:50:48;;;;;;;29.75;20.77;;;;;;;3.88;96.35;101480.09;10453807;28;20127;-80
2024/01/30 04:55:52;;;;;;;35.88;20.85;;;;;;;3.89;96.22;101488.91;10420043;28;20058;-79
2024/01/30 05:00:55;;;;;;;32.45;20.80;;;;;;;3.89;96.42;101484.47;10454587;28;20051;-79
2024/01/30 05:06:00;;;;;;;31.88;20.08;;;;;;;3.87;97.09;101478.38;10446196;28;20428;-80
2024/01/30 05:11:06;;;;;;;34.20;21.30;;;;;;;3.90;96.78;101477.38;10446058;28;20049;-79
2024/01/30 05:16:09;;;;;;;38.53;20.20;;;;;;;3.91;96.60;101481.78;10438849;28;20055;-81
2024/01/30 05:21:12;;;;;;;31.65;19.70;;;;;;;3.92;97.42;101475.53;10449619;28;20640;-79
2024/01/30 05:26:16;;;;;;;31.35;20.00;;;;;;;3.99;97.11;101474.38;10454179;28;20053;-81
2024/01/30 05:31:21;;;;;;;34.70;20.00;;;;;;;3.95;96.72;101476.28;10439045;28;20053;-77
2024/01/30 05:36:24;;;;;;;31.20;19.00;;;;;;;3.93;97.05;101474.63;10439032;28;20080;-80
2024/01/30 05:41:28;;;;;;;29.17;18.88;;;;;;;3.88;96.67;101468.59;10427106;28;20074;-81
2024/01/30 05:46:31;;;;;;;28.42;18.40;;;;;;;3.85;96.75;101468.72;10437254;28;20053;-80
2024/01/30 05:51:34;;;;;;;29.13;18.17;;;;;;;3.78;96.80;101460.06;10437103;28;20103;-79
2024/01/30 05:56:39;;;;;;;30.48;19.60;;;;;;;3.76;96.80;101467.25;10429877;28;20048;-81
2024/01/30 06:01:46;;;;;;;31.00;18.67;;;;;;;3.71;96.90;101455.91;10474755;28;21183;-80
2024/01/30 06:06:50;;;;;;;32.17;18.60;;;;;;;3.69;97.00;101455.94;10435922;28;20213;-79
2024/01/30 06:11:54;;;;;;;32.22;18.83;;;;;;;3.66;97.02;101461.38;10420134;28;20088;-81
2024/01/30 06:16:57;;;;;;;34.50;19.55;;;;;;;3.67;97.12;101464.91;10453658;28;20048;-81
2024/01/30 06:22:00;;;;;;;31.95;17.92;;;;;;;3.71;97.10;101474.50;10447834;28;20080;-77
2024/01/30 06:27:05;;;;;;;29.25;17.17;;;;;;;3.69;96.74;101471.88;10444504;28;20436;-77
2024/01/30 06:32:08;;;;;;;28.70;17.95;;;;;;;3.75;96.89;101464.63;10468580;28;20557;-79
2024/01/30 06:37:12;;;;;;;31.30;19.15;;;;;;;3.75;97.11;101464.63;10448346;28;20048;-77
2024/01/30 06:42:16;;;;;;;34.60;19.17;;;;;;;3.75;97.48;101461.97;10454745;28;20117;-78
2024/01/30 06:47:19;;;;;;;32.10;19.20;;;;;;;3.78;97.20;101469.84;10443904;28;20052;-78
2024/01/30 06:52:22;;;;;;;29.73;18.48;;;;;;;3.83;97.13;101476.72;10444930;28;20061;-77
2024/01/30 06:57:27;;;;;;;33.00;17.85;;;;;;;3.86;97.12;101467.78;10419247;28;20586;-79
2024/01/30 07:02:30;;;;;;;34.40;18.98;;;;;;;3.85;96.75;101466.03;10427834;28;20462;-77
2024/01/30 07:07:34;;;;;;;30.08;17.90;;;;;;;3.87;97.93;101465.06;10445908;28;20055;-78
2024/01/30 07:12:38;;;;;;;30.33;17.27;;;;;;;4.02;99.35;101447.69;10413352;28;20705;-77
2024/01/30 07:17:41;;;;;;;25.73;16.35;;;;;;;4.28;99.13;101441.41;10446529;28;20047;-77
2024/01/30 07:22:45;;;;;;;26.58;16.52;;;;;;;4.44;98.73;101438.13;10453049;28;20048;-77
2024/01/30 07:27:49;;;;;;;25.50;14.75;;;;;;;4.64;97.92;101456.88;10443498;28;20056;-78
2024/01/30 07:32:52;;;;;;;27.10;16.00;;;;;;;4.83;97.27;101465.88;10441739;28;20060;-78
2024/01/30 07:37:56;;;;;;;25.42;15.85;;;;;;;4.97;96.76;101459.13;10447604;28;20052;-78
2024/01/30 07:43:01;;;;;;;27.52;16.65;;;;;;;4.94;95.25;101462.78;10440716;28;20053;-77
2024/01/30 07:48:04;;;;;;;28.20;16.27;;;;;;;4.95;95.00;101458.31;10458504;28;20640;-79
2024/01/30 07:53:07;;;;;;;24.75;15.80;;;;;;;5.05;94.90;101454.38;10454463;28;20059;-78
2024/01/30 07:58:12;;;;;;;27.55;15.98;;;;;;;5.05;94.43;101455.25;10460835;28;20048;-78
2024/01/30 08:03:16;;;;;;;25.25;16.10;;;;;;;5.03;93.08;101459.75;10448633;28;20052;-78
2024/01/30 08:08:19;;;;;;;26.88;16.58;;;;;;;5.00;91.98;101462.56;10470746;28;20043;-79
2024/01/30 08:13:23;;;;;;;28.33;16.40;;;;;;;4.93;91.35;101469.00;10429858;28;20045;-78
2024/01/30 08:18:27;;;;;;;23.42;16.38;;;;;;;4.91;91.21;101459.34;10412543;28;20059;-79
2024/01/30 08:23:30;;;;;;;26.42;16.42;;;;;;;4.87;91.27;101452.44;10448603;28;20055;-79
2024/01/30 08:28:35;;;;;;;30.00;18.42;;;;;;;4.90;91.57;101445.16;10409958;28;20048;-77
2024/01/30 08:33:38;;;;;;;27.60;16.60;;;;;;;5.03;91.15;101448.25;10429548;28;20044;-78
2024/01/30 08:38:43;;;;;;;26.30;15.60;;;;;;;5.18;90.34;101455.59;10418807;28;20262;-78
2024/01/30 08:43:47;;;;;;;27.48;16.08;;;;;;;5.34;89.90;101460.28;10421214;28;20049;-75
2024/01/30 08:48:50;;;;;;;26.95;16.90;;;;;;;5.32;89.35;101465.69;10417227;28;20613;-76
2024/01/30 08:53:54;;;;;;;27.63;16.40;;;;;;;5.50;88.65;101467.56;10417064;28;21216;-77
2024/01/30 08:58:58;;;;;;;28.98;17.45;;;;;;;5.57;88.24;101469.97;10414943;28;20063;-78
2024/01/30 09:04:01;;;;;;;26.90;16.30;;;;;;;5.72;87.68;101474.63;10420182;28;20602;-78
2024/01/30 09:09:04;;;;;;;25.60;16.48;;;;;;;5.89;87.18;101466.75;10442305;28;20060;-77
2024/01/30 09:14:09;;;;;;;24.45;16.60;;;;;;;6.07;86.35;101461.56;10438120;28;20166;-78
2024/01/30 09:19:12;;;;;;;24.02;15.95;;;;;;;6.18;85.97;101470.78;10437572;28;20056;-77
2024/01/30 09:24:15;;;;;;;23.88;15.27;;;;;;;6.40;85.09;101460.00;10432605;28;20064;-80
2024/01/30 09:29:19;;;;;;;26.55;15.95;;;;;;;6.67;84.31;101473.00;10421083;28;20055;-78
2024/01/30 09:34:22;;;;;;;23.85;15.60;;;;;;;6.87;83.17;101460.50;10442928;28;20613;-79
2024/01/30 09:39:25;;;;;;;26.55;16.63;;;;;;;7.05;81.69;101462.31;10455398;28;20044;-79
2024/01/30 09:44:31;;;;;;;22.75;14.90;;;;;;;7.31;81.62;101458.31;10460123;28;20048;-79
2024/01/30 09:49:35;;;;;;;24.05;14.75;;;;;;;7.57;80.71;101462.38;10454796;28;20053;-79
2024/01/30 09:54:39;;;;;;;24.13;14.98;;;;;;;7.66;80.94;101469.03;10451272;28;20106;-79
2024/01/30 09:59:44;;;;;;;23.70;14.82;;;;;;;7.80;81.47;101469.19;10450909;28;20100;-79
2024/01/30 10:04:49;;;;;;;16.45;11.05;;;;;;;8.10;84.48;101464.03;10454639;28;20044;-79
2024/01/30 10:09:53;;;;;;;9.73;7.55;;;;;;;8.72;83.89;101464.25;10460872;28;20183;-78
2024/01/30 10:15:00;;;;;;;10.98;6.82;;;;;;;9.59;79.12;101460.97;10462452;28;20040;-78
2024/01/30 10:20:05;;;;;;;10.00;5.50;;;;;;;9.71;77.90;101459.41;10454041;28;20072;-77
2024/01/30 10:25:10;;;;;;;11.93;6.55;;;;;;;10.16;76.37;101460.22;10443572;28;20051;-77
2024/01/30 10:30:15;;;;;;;11.75;6.10;;;;;;;10.51;74.47;101470.59;10444868;28;20058;-78
2024/01/30 10:35:18;;;;;;;11.18;5.88;;;;;;;11.03;72.22;101464.53;10428348;28;20045;-78
2024/01/30 10:40:26;;;;;;;9.23;5.30;;;;;;;11.42;70.74;101458.31;10411634;28;20258;-77
2024/01/30 10:45:31;;;;;;;10.88;5.95;;;;;;;11.68;69.84;101461.94;10416271;28;20055;-77
2024/01/30 10:50:36;;;;;;;9.98;5.53;;;;;;;12.03;68.15;101458.63;10432072;28;20131;-78
2024/01/30 10:55:55;;;;;;;7.03;5.15;;;;;;;12.66;65.52;101448.75;10424141;28;21261;-79
2024/01/30 11:01:00;;;;;;;7.30;4.88;;;;;;;13.62;62.70;101431.72;10431350;28;20044;-79
2024/01/30 11:06:04;;;;;;;7.68;4.80;;;;;;;13.59;62.26;101423.84;10427050;28;20048;-78
2024/01/30 11:11:10;;;;;;;8.02;4.65;;;;;;;14.08;60.27;101423.56;10427955;28;20056;-79
2024/01/30 11:16:17;;;;;;;7.70;4.70;;;;;;;14.27;59.34;101420.25;10412588;28;20060;-79
2024/01/30 11:21:20;;;;;;;9.15;5.03;;;;;;;14.77;58.53;101407.16;10422655;28;20178;-78
2024/01/30 11:26:29;;;;;;;6.55;4.68;;;;;;;13.89;59.79;101413.34;10415929;28;20665;-81
2024/01/30 11:31:34;;;;;;;7.95;4.63;;;;;;;12.79;64.09;101432.56;10408931;28;20055;-80
2024/01/30 11:36:38;;;;;;;10.27;5.45;;;;;;;12.71;65.49;101410.69;10413576;28;20037;-80
2024/01/30 11:41:42;;;;;;;10.43;4.88;;;;;;;12.51;66.76;101414.84;10430177;28;20140;-77
2024/01/30 11:46:47;;;;;;;8.98;5.60;;;;;;;12.90;66.99;101412.88;10442182;28;20090;-79
2024/01/30 11:51:53;;;;;;;7.95;4.90;;;;;;;12.47;68.24;101416.03;10426729;28;20047;-78
2024/01/30 11:56:56;;;;;;;7.53;5.32;;;;;;;12.24;68.87;101406.91;10439268;28;20055;-78
2024/01/30 12:02:01;;;;;;;8.80;5.97;;;;;;;11.95;70.66;101407.97;10441705;28;20037;-77
2024/01/30 12:07:05;;;;;;;9.18;6.68;;;;;;;12.58;68.70;101398.09;10464196;28;20063;-78
2024/01/30 12:12:11;;;;;;;10.77;6.15;;;;;;;12.20;69.55;101418.84;10447281;28;20052;-76
2024/01/30 12:17:26;;;;;;;9.25;6.15;;;;;;;11.31;73.74;101411.59;10414770;28;20689;-77
2024/01/30 12:22:29;;;;;;;11.32;6.10;;;;;;;10.91;76.18;101416.91;10421007;28;20037;-77
2024/01/30 12:27:32;;;;;;;9.05;6.22;;;;;;;11.02;75.80;101409.00;10423565;28;20048;-77
2024/01/30 12:32:37;;;;;;;11.05;5.55;;;;;;;10.69;77.16;101418.31;10440175;28;20041;-77
2024/01/30 12:37:41;;;;;;;14.75;6.85;;;;;;;10.72;77.52;101418.13;10426523;28;20509;-78
2024/01/30 12:42:46;;;;;;;11.32;5.88;;;;;;;10.77;77.04;101417.84;10423286;28;20122;-77
2024/01/30 12:47:51;;;;;;;11.48;6.80;;;;;;;10.66;78.27;101420.38;10426929;28;21085;-78
2024/01/30 12:52:54;;;;;;;17.05;7.25;;;;;;;10.79;77.78;101421.28;10414656;28;20072;-78
2024/01/30 12:57:57;;;;;;;12.25;7.47;;;;;;;10.83;77.90;101420.13;10441714;28;20060;-77
2024/01/30 13:03:02;;;;;;;13.50;7.68;;;;;;;10.86;78.23;101427.13;10442041;28;20412;-79
2024/01/30 13:08:06;;;;;;;10.40;6.75;;;;;;;10.70;78.39;101428.13;10430139;28;20147;-77
2024/01/30 13:13:09;;;;;;;17.50;7.68;;;;;;;10.71;79.54;101432.53;10412798;28;20037;-79
2024/01/30 13:18:23;;;;;;;10.10;6.35;;;;;;;10.57;79.50;101443.31;10426706;28;20532;-78
2024/01/30 13:23:26;;;;;;;13.55;7.15;;;;;;;10.70;78.94;101441.56;10408632;28;20048;-76
2024/01/30 13:28:29;;;;;;;13.65;7.38;;;;;;;10.89;79.37;101433.16;10409205;28;20048;-77
2024/01/30 13:33:34;;;;;;;16.77;8.52;;;;;;;11.28;77.65;101426.13;10440566;28;20063;-76
2024/01/30 13:38:37;;;;;;;13.43;6.90;;;;;;;11.08;78.92;101427.44;10458411;28;20240;-78
2024/01/30 13:43:40;;;;;;;16.48;7.78;;;;;;;11.20;78.80;101434.72;10418639;28;20041;-78
2024/01/30 13:48:44;;;;;;;13.60;8.07;;;;;;;11.25;78.90;101424.50;10417410;28;20051;-78
2024/01/30 13:53:47;;;;;;;12.55;8.75;;;;;;;11.20;79.33;101432.00;10394565;28;20041;-78
2024/01/30 13:58:50;;;;;;;21.05;8.25;;;;;;;11.17;79.56;101439.44;10435043;28;20048;-79
2024/01/30 14:03:55;;;;;;;15.88;8.60;;;;;;;11.03;80.90;101443.88;10445833;28;20044;-77
2024/01/30 14:08:58;;;;;;;11.82;8.10;;;;;;;10.97;81.89;101438.03;10421907;28;20548;-78
2024/01/30 14:14:10;;;;;;;18.67;9.40;;;;;;;11.43;79.84;101445.72;10419667;28;20052;-76
2024/01/30 14:19:14;;;;;;;18.42;9.13;;;;;;;10.94;83.22;101447.19;10433310;28;20843;-78
2024/01/30 14:24:17;;;;;;;14.65;6.47;;;;;;;10.92;84.49;101453.63;10441228;28;20519;-77
2024/01/30 14:29:20;;;;;;;15.52;6.70;;;;;;;10.75;86.09;101452.00;10422141;28;20102;-78
2024/01/30 14:34:24;;;;;;;13.15;6.05;;;;;;;10.77;86.83;101463.53;10399365;28;20421;-78
2024/01/30 14:39:28;;;;;;;19.58;9.30;;;;;;;10.74;87.73;101466.41;10432987;28;20045;-78
2024/01/30 14:44:31;;;;;;;15.13;9.90;;;;;;;10.59;89.08;101468.28;10426583;28;20124;-78
2024/01/30 14:49:35;;;;;;;20.50;10.38;;;;;;;10.45;90.73;101476.31;10461669;28;20048;-78
2024/01/30 14:54:38;;;;;;;13.85;8.70;;;;;;;10.65;87.99;101478.63;10404305;28;20055;-78
2024/01/30 14:59:42;;;;;;;16.15;8.18;;;;;;;10.46;88.58;101476.25;10427489;28;20052;-78
2024/01/30 15:04:46;;;;;;;15.63;8.02;;;;;;;10.84;85.68;101476.47;10425801;28;20052;-78
2024/01/30 15:09:49;;;;;;;18.85;7.65;;;;;;;10.31;88.36;101464.66;10426390;28;20444;-78
2024/01/30 15:14:52;;;;;;;17.63;9.43;;;;;;;10.48;86.48;101465.41;10435381;28;20051;-78
2024/01/30 15:19:58;;;;;;;11.00;7.65;;;;;;;10.25;88.43;101473.06;10425840;28;20500;-79
2024/01/30 15:25:03;;;;;;;11.98;8.77;;;;;;;10.68;85.44;101470.38;10433421;28;20044;-79
2024/01/30 15:30:07;;;;;;;15.73;10.35;;;;;;;10.41;86.41;101475.66;10428040;28;20056;-78
2024/01/30 15:35:12;;;;;;;22.58;11.10;;;;;;;10.51;86.43;101475.97;10426617;28;20044;-78
2024/01/30 15:40:15;;;;;;;18.80;10.80;;;;;;;10.34;87.68;101483.25;10432112;28;20087;-78
2024/01/30 15:45:19;;;;;;;16.58;11.70;;;;;;;10.52;86.85;101486.59;10425044;28;20609;-78
2024/01/30 15:50:24;;;;;;;13.38;7.90;;;;;;;10.28;87.54;101499.72;10429145;28;20071;-76
2024/01/30 15:55:27;;;;;;;15.75;10.05;;;;;;;10.67;84.94;101492.84;10417923;28;20135;-77
2024/01/30 16:00:31;;;;;;;16.48;11.02;;;;;;;10.65;85.77;101504.63;10415367;28;21729;-77
2024/01/30 16:05:36;;;;;;;13.98;8.82;;;;;;;10.66;85.06;101496.47;10450015;28;21154;-76
2024/01/30 16:10:39;;;;;;;12.85;9.07;;;;;;;10.77;85.12;101496.63;10449524;28;20124;-76
2024/01/30 16:15:44;;;;;;;21.42;8.95;;;;;;;10.52;86.78;101507.22;10458644;28;20530;-78
2024/01/30 16:20:49;;;;;;;15.32;9.73;;;;;;;10.26;88.60;101493.63;10452703;28;20052;-76
2024/01/30 16:25:52;;;;;;;15.75;9.23;;;;;;;10.45;87.52;101504.06;10435927;28;20082;-78
2024/01/30 16:30:57;;;;;;;15.45;8.52;;;;;;;10.16;89.19;101503.19;10412437;28;20768;-79
2024/01/30 16:36:03;;;;;;;18.90;10.10;;;;;;;10.14;89.81;101499.72;10426740;28;20054;-77
2024/01/30 16:41:06;;;;;;;18.13;10.82;;;;;;;10.42;88.53;101509.63;10432433;28;20099;-79
2024/01/30 16:46:10;;;;;;;17.90;10.73;;;;;;;9.97;91.76;101513.34;10436993;28;20056;-77
2024/01/30 16:51:15;;;;;;;18.60;9.40;;;;;;;10.12;89.94;101515.06;10438694;28;20048;-78
2024/01/30 16:56:18;;;;;;;17.60;10.63;;;;;;;10.03;90.64;101534.44;10434039;28;20485;-77
2024/01/30 17:01:22;;;;;;;17.65;10.82;;;;;;;9.81;91.92;101532.13;10430675;28;20183;-78
2024/01/30 17:06:27;;;;;;;17.52;10.80;;;;;;;10.00;90.92;101554.28;10437384;28;20049;-78
2024/01/30 17:11:30;;;;;;;17.13;10.45;;;;;;;9.76;87.15;101564.59;10430764;28;20085;-78
2024/01/30 17:16:33;;;;;;;13.90;7.75;;;;;;;9.82;82.36;101576.78;10412224;28;20057;-77
2024/01/30 17:21:37;;;;;;;8.23;5.95;;;;;;;9.28;82.03;101602.22;10406545;28;20053;-78
2024/01/30 17:26:40;;;;;;;12.98;5.80;;;;;;;9.36;78.83;101588.38;10423705;28;20141;-78
2024/01/30 17:31:48;;;;;;;11.13;5.18;;;;;;;9.00;79.39;101597.56;10430682;28;20056;-77
2024/01/30 17:36:52;;;;;;;7.22;3.45;;;;;;;8.75;77.97;101600.72;10439405;28;20040;-76
2024/01/30 17:41:55;;;;;;;6.95;3.88;;;;;;;8.71;77.47;101603.63;10447879;28;21081;-76
2024/01/30 17:46:59;;;;;;;4.82;2.60;;;;;;;8.33;77.74;101625.22;10421216;28;20044;-78
2024/01/30 17:52:03;;;;;;;6.85;3.30;;;;;;;8.70;75.04;101640.28;10458800;28;20053;-77
2024/01/30 17:57:07;;;;;;;4.20;2.53;;;;;;;8.54;75.14;101637.53;10471404;28;20062;-78
2024/01/30 18:02:11;;;;;;;5.82;2.92;;;;;;;8.22;76.28;101651.69;10464429;28;20056;-78
2024/01/30 18:07:16;;;;;;;7.05;2.90;;;;;;;8.46;74.96;101661.16;10439371;28;20081;-78
2024/01/30 18:12:19;;;;;;;6.32;2.50;;;;;;;8.32;75.37;101675.25;10433118;28;20542;-78
2024/01/30 18:17:22;;;;;;;3.33;2.75;;;;;;;8.52;75.01;101671.56;10424694;28;21275;-78
2024/01/30 18:22:26;;;;;;;7.72;2.72;;;;;;;8.44;75.58;101676.41;10427348;28;20049;-78
2024/01/30 18:27:29;;;;;;;4.55;2.53;;;;;;;8.29;75.20;101679.91;10422062;28;20051;-80
2024/01/30 18:32:32;;;;;;;4.88;2.85;;;;;;;8.76;73.15;101688.16;10435840;28;20094;-79
2024/01/30 18:37:37;;;;;;;8.00;3.17;;;;;;;8.37;75.63;101691.06;10423792;28;20467;-78
2024/01/30 18:42:40;;;;;;;3.67;2.90;;;;;;;8.24;75.86;101690.81;10430204;28;20051;-78
2024/01/30 18:47:43;;;;;;;4.68;3.35;;;;;;;8.29;75.07;101687.94;10419085;28;20056;-78
2024/01/30 18:52:47;;;;;;;5.78;3.40;;;;;;;8.50;74.92;101696.69;10418854;28;20480;-76
2024/01/30 18:57:50;;;;;;;5.57;3.00;;;;;;;8.25;76.50;101697.91;10420744;28;20056;-79
2024/01/30 19:02:53;;;;;;;5.22;3.33;;;;;;;8.51;74.97;101714.50;10417487;28;21055;-77
2024/01/30 19:07:58;;;;;;;4.90;2.85;;;;;;;8.41;75.43;101714.06;10435116;28;20053;-79
2024/01/30 19:13:01;;;;;;;6.72;4.05;;;;;;;8.89;73.66;101715.19;10412575;28;20053;-80
2024/01/30 19:18:04;;;;;;;4.18;3.22;;;;;;;7.85;78.48;101717.75;10438007;28;20047;-79
2024/01/30 19:23:12;;;;;;;7.63;4.65;;;;;;;8.48;79.32;101722.69;10443032;28;20060;-78
2024/01/30 19:28:20;;;;;;;7.50;4.75;;;;;;;7.73;84.07;101738.81;10450445;28;21178;-79
2024/01/30 19:33:23;;;;;;;13.30;4.07;;;;;;;7.89;83.22;101733.56;10451353;28;20045;-79
2024/01/30 19:38:27;;;;;;;8.40;4.60;;;;;;;7.68;85.35;101743.50;10460975;28;20527;-79
2024/01/30 19:43:30;;;;;;;4.72;2.13;;;;;;;7.51;87.04;101740.75;10442331;28;20051;-79
2024/01/30 19:48:33;;;;;;;5.95;3.22;;;;;;;7.49;87.40;101766.72;10432150;28;20173;-79
2024/01/30 19:53:39;;;;;;;5.97;4.40;;;;;;;7.67;87.69;101768.50;10432621;28;20534;-79
2024/01/30 19:58:42;;;;;;;6.97;4.50;;;;;;;7.77;87.28;101771.63;10431908;28;20614;-79
2024/01/30 20:03:46;;;;;;;8.02;5.32;;;;;;;7.55;89.97;101770.91;10434492;28;20123;-79
2024/01/30 20:08:51;;;;;;;8.90;4.70;;;;;;;7.42;91.79;101770.59;10437852;28;20055;-79
2024/01/30 20:13:54;;;;;;;5.90;3.88;;;;;;;7.27;92.54;101780.19;10455184;28;20603;-79
2024/01/30 20:18:58;;;;;;;8.02;5.50;;;;;;;7.32;93.05;101775.47;10449781;28;20052;-79
2024/01/30 20:24:05;;;;;;;8.93;5.25;;;;;;;7.22;93.66;101800.91;10447858;28;20056;-78
2024/01/30 20:29:09;;;;;;;11.18;6.43;;;;;;;7.37;94.67;101796.66;10434366;28;20140;-79
2024/01/30 20:34:14;;;;;;;12.43;6.65;;;;;;;7.38;94.01;101798.41;10447629;28;20045;-78
2024/01/30 20:39:19;;;;;;;11.52;7.30;;;;;;;7.37;94.89;101816.25;10471814;28;20079;-77
2024/01/30 20:44:23;;;;;;;13.07;7.53;;;;;;;7.10;96.07;101822.81;10463349;28;20064;-78
2024/01/30 20:49:27;;;;;;;8.80;5.70;;;;;;;7.09;93.70;101808.59;10443798;28;20044;-78
2024/01/30 20:54:34;;;;;;;10.98;6.72;;;;;;;7.15;95.41;101831.50;10436022;28;20049;-80
2024/01/30 20:59:38;;;;;;;11.48;7.18;;;;;;;7.05;95.84;101812.34;10452932;28;20037;-78
2024/01/30 21:04:41;;;;;;;10.80;6.45;;;;;;;7.12;94.59;101819.13;10449472;28;20079;-79
2024/01/30 21:09:49;;;;;;;12.85;7.72;;;;;;;6.99;96.30;101824.16;10442996;28;20051;-77
2024/01/30 21:14:53;;;;;;;9.55;5.28;;;;;;;6.68;99.90;101834.38;10429329;28;20041;-78
2024/01/30 21:19:57;;;;;;;10.18;5.68;;;;;;;6.84;98.03;101835.47;10453430;28;20508;-80
2024/01/30 21:25:02;;;;;;;14.80;9.30;;;;;;;7.04;97.72;101842.66;10476934;28;20040;-79
2024/01/30 21:30:07;;;;;;;13.82;7.22;;;;;;;6.81;98.84;101857.81;10464905;28;20055;-79
2024/01/30 21:35:12;;;;;;;10.15;5.55;;;;;;;6.79;99.30;101856.16;10438699;28;20061;-79
2024/01/30 21:40:17;;;;;;;12.45;5.53;;;;;;;6.49;100.00;101852.94;10440358;28;20056;-78
2024/01/30 21:45:22;;;;;;;15.85;9.20;;;;;;;6.95;100.00;101857.28;10469249;28;21223;-78
2024/01/30 21:50:26;;;;;;;13.68;7.43;;;;;;;6.17;100.00;101861.31;10459134;28;20091;-79
2024/01/30 21:55:30;;;;;;;15.05;7.55;;;;;;;6.37;100.00;101865.84;10464098;28;20098;-78
2024/01/30 22:00:34;;;;;;;17.13;8.63;;;;;;;6.64;100.00;101865.69;10452150;28;20051;-79
2024/01/30 22:05:40;;;;;;;18.92;10.73;;;;;;;6.51;100.00;101862.63;10454294;28;20052;-79
2024/01/30 22:10:48;;;;;;;18.75;9.43;;;;;;;6.21;100.00;101856.72;10478871;28;20462;-78
2024/01/30 22:15:51;;;;;;;21.77;11.23;;;;;;;6.61;100.00;101860.47;10433237;28;20046;-78
2024/01/30 22:20:54;;;;;;;19.48;10.40;;;;;;;6.74;100.00;101888.38;10459802;28;20054;-78
2024/01/30 22:26:00;;;;;;;22.90;10.45;;;;;;;6.77;100.00;101866.88;10470617;28;20607;-79
2024/01/30 22:31:03;;;;;;;17.90;9.77;;;;;;;6.69;100.00;101879.72;10449442;28;20063;-78
2024/01/30 22:36:08;;;;;;;19.92;10.45;;;;;;;6.22;100.00;101894.94;10453333;28;20102;-80
2024/01/30 22:41:13;;;;;;;13.13;7.20;;;;;;;5.80;100.00;101901.00;10471592;28;20055;-79
2024/01/30 22:46:16;;;;;;;10.90;6.63;;;;;;;6.04;100.00;101902.75;10452656;28;20499;-80
2024/01/30 22:51:22;;;;;;;11.27;5.50;;;;;;;5.76;100.00;101910.00;10434763;28;20041;-78
2024/01/30 22:56:27;;;;;;;8.65;5.00;;;;;;;5.68;100.00;101924.50;10444024;28;20687;-75
2024/01/30 23:01:30;;;;;;;6.80;3.28;;;;;;;5.57;100.00;101926.69;10452968;28;20095;-78
2024/01/30 23:06:33;;;;;;;6.70;3.45;;;;;;;5.78;100.00;101938.38;10460003;28;20048;-79